createdAt,value
2019-03-03T00:01:03.978Z,100609.29
2019-03-03T00:03:33.255Z,100610.23
2019-03-03T00:06:02.384Z,100608.95
2019-03-03T00:08:31.293Z,100608.86
2019-03-03T00:11:00.341Z,100617.36
2019-03-03T00:13:29.507Z,100615.10
2019-03-03T00:15:58.492Z,100610.34
2019-03-03T00:18:27.399Z,100604.86
2019-03-03T00:20:56.499Z,100619.52
2019-03-03T00:23:25.641Z,100617.92
2019-03-03T00:25:54.825Z,100623.50
2019-03-03T00:28:23.761Z,100617.92
2019-03-03T00:30:52.799Z,100617.68
2019-03-03T00:33:23.029Z,100612.23
2019-03-03T00:35:51.822Z,100613.02
2019-03-03T00:38:42.873Z,100597.03
2019-03-03T00:41:39.656Z,100599.48
2019-03-03T00:44:30.933Z,100597.91
2019-03-03T00:47:20.934Z,100591.27
2019-03-03T00:50:07.898Z,100576.41
2019-03-03T00:52:59.885Z,100574.52
2019-03-03T00:55:45.786Z,100565.21
2019-03-03T00:58:23.781Z,100563.80
2019-03-03T01:01:00.477Z,100564.77
2019-03-03T01:03:40.276Z,100556.77
2019-03-03T01:19:52.785Z,100536.57
2019-03-03T01:22:39.728Z,100537.16
2019-03-03T01:25:09.041Z,100530.38
2019-03-03T01:27:38.381Z,100525.11
2019-03-03T01:30:10.101Z,100515.31
2019-03-03T01:32:38.934Z,100513.36
2019-03-03T01:35:08.655Z,100517.31
2019-03-03T01:37:37.594Z,100514.09
2019-03-03T01:40:07.493Z,100512.88
2019-03-03T01:42:36.595Z,100501.77
2019-03-03T01:45:07.002Z,100498.77
2019-03-03T01:47:36.252Z,100498.77
2019-03-03T01:50:05.552Z,100489.38
2019-03-03T01:52:34.483Z,100481.84
2019-03-03T01:55:03.572Z,100476.73
2019-03-03T01:57:32.424Z,100471.67
2019-03-03T02:00:01.394Z,100474.51
2019-03-03T02:02:30.894Z,100466.12
2019-03-03T02:05:00.014Z,100469.33
2019-03-03T02:07:28.999Z,100461.96
2019-03-03T02:09:58.624Z,100450.20
2019-03-03T02:12:27.620Z,100448.78
2019-03-03T02:14:56.446Z,100443.98
2019-03-03T02:17:25.466Z,100432.05
2019-03-03T02:19:54.345Z,100426.84
2019-03-03T02:22:23.192Z,100429.48
2019-03-03T02:24:52.035Z,100417.24
2019-03-03T02:27:20.935Z,100416.28
2019-03-03T02:29:50.033Z,100414.98
2019-03-03T02:32:19.076Z,100420.60
2019-03-03T02:41:44.784Z,100414.22
2019-03-03T02:56:01.009Z,100398.17
2019-03-03T02:58:29.915Z,100387.26
2019-03-03T03:05:01.129Z,100372.84
2019-03-03T03:35:48.848Z,100337.62
2019-03-03T03:39:11.485Z,100338.06
2019-03-03T03:42:34.131Z,100332.90
2019-03-03T03:45:37.102Z,100304.69
2019-03-03T03:48:36.857Z,100318.86
2019-03-03T04:00:51.462Z,100310.63
2019-03-03T04:07:23.483Z,100287.54
2019-03-03T04:33:56.599Z,100240.20
2019-03-03T04:40:52.330Z,100248.97
2019-03-03T05:13:59.287Z,100204.88
2019-03-03T05:20:58.644Z,100194.52
2019-03-03T05:28:06.476Z,100196.11
2019-03-03T05:37:44.457Z,100190.11
2019-03-03T05:47:17.346Z,100175.95
2019-03-03T05:57:12.367Z,100178.34
2019-03-03T06:11:57.145Z,100174.12
2019-03-03T06:21:30.433Z,100159.84
2019-03-03T06:34:11.831Z,100165.63
2019-03-03T06:50:59.329Z,100163.30
2019-03-03T06:53:28.547Z,100164.42
2019-03-03T07:03:12.259Z,100151.61
2019-03-03T07:10:00.231Z,100167.91
2019-03-03T07:16:59.581Z,100158.34
2019-03-03T07:26:24.580Z,100160.80
2019-03-03T07:29:08.390Z,100173.20
2019-03-03T07:38:22.894Z,100166.80
2019-03-03T07:44:14.646Z,100178.77
2019-03-03T07:46:43.583Z,100176.61
2019-03-03T07:49:12.515Z,100170.38
2019-03-03T07:51:41.644Z,100179.97
2019-03-03T07:54:10.470Z,100179.39
2019-03-03T07:56:39.256Z,100179.86
2019-03-03T07:59:08.268Z,100180.70
2019-03-03T08:01:37.357Z,100177.88
2019-03-03T08:04:06.250Z,100184.00
2019-03-03T08:06:35.575Z,100173.34
2019-03-03T08:09:05.793Z,100166.75
2019-03-03T08:11:34.661Z,100175.02
2019-03-03T08:14:03.654Z,100172.39
2019-03-03T08:16:32.475Z,100164.95
2019-03-03T08:19:01.295Z,100137.37
2019-03-03T08:21:30.394Z,100166.89
2019-03-03T08:23:59.366Z,100169.45
2019-03-03T08:26:28.170Z,100170.66
2019-03-03T08:28:57.450Z,100171.02
2019-03-03T08:31:26.694Z,100179.87
2019-03-03T08:33:55.806Z,100168.27
2019-03-03T08:36:25.228Z,100172.48
2019-03-03T08:38:54.139Z,100179.44
2019-03-03T08:41:23.233Z,100175.87
2019-03-03T08:44:05.829Z,100157.84
2019-03-03T08:46:53.703Z,100175.87
2019-03-03T08:49:41.677Z,100182.13
2019-03-03T08:52:32.618Z,100179.38
2019-03-03T08:55:18.990Z,100177.52
2019-03-03T08:58:06.485Z,100192.94
2019-03-03T09:01:09.701Z,100184.10
2019-03-03T09:04:03.300Z,100179.08
2019-03-03T09:06:43.623Z,100189.37
2019-03-03T09:09:34.318Z,100189.37
2019-03-03T09:12:21.868Z,100188.62
2019-03-03T09:15:25.668Z,100199.16
2019-03-03T09:18:02.069Z,100198.21
2019-03-03T09:20:46.151Z,100198.97
2019-03-03T09:23:37.179Z,100192.75
2019-03-03T09:26:25.250Z,100193.47
2019-03-03T09:29:19.210Z,100199.22
2019-03-03T09:32:09.163Z,100204.02
2019-03-03T09:35:00.070Z,100205.70
2019-03-03T09:37:37.591Z,100194.02
2019-03-03T09:40:32.274Z,100194.02
2019-03-03T09:43:26.065Z,100199.17
2019-03-03T09:46:13.813Z,100197.38
2019-03-03T09:48:52.251Z,100202.06
2019-03-03T09:51:36.015Z,100202.34
2019-03-03T09:54:36.178Z,100196.95
2019-03-03T09:57:23.061Z,100195.27
2019-03-03T09:59:58.854Z,100179.22
2019-03-03T10:02:41.917Z,100203.92
2019-03-03T10:05:37.023Z,100208.97
2019-03-03T10:08:21.569Z,100205.97
2019-03-03T10:11:08.275Z,100207.53
2019-03-03T10:14:05.147Z,100197.45
2019-03-03T10:16:45.831Z,100201.59
2019-03-03T10:19:23.880Z,100200.63
2019-03-03T10:22:11.327Z,100207.36
2019-03-03T10:24:59.497Z,100198.53
2019-03-03T10:27:38.371Z,100208.69
2019-03-03T10:30:34.450Z,100207.53
2019-03-03T10:33:20.596Z,100193.16
2019-03-03T10:36:13.174Z,100196.39
2019-03-03T10:38:54.355Z,100194.70
2019-03-03T10:41:48.230Z,100202.25
2019-03-03T10:44:39.126Z,100208.48
2019-03-03T10:47:26.592Z,100211.49
2019-03-03T10:50:01.245Z,100209.58
2019-03-03T10:53:01.549Z,100208.91
2019-03-03T10:55:42.440Z,100201.72
2019-03-03T10:58:30.412Z,100203.64
2019-03-03T11:01:24.598Z,100212.64
2019-03-03T11:04:11.613Z,100233.86
2019-03-03T11:06:58.362Z,100217.80
2019-03-03T11:09:58.640Z,100207.97
2019-03-03T11:12:41.850Z,100218.45
2019-03-03T11:15:24.730Z,100210.61
2019-03-03T11:18:09.001Z,100210.95
2019-03-03T11:21:00.018Z,100211.80
2019-03-03T11:23:49.507Z,100212.58
2019-03-03T11:26:28.780Z,100214.50
2019-03-03T11:29:22.662Z,100225.16
2019-03-03T11:32:13.411Z,100229.01
2019-03-03T11:35:00.069Z,100210.42
2019-03-03T11:37:37.929Z,100214.55
2019-03-03T11:40:25.481Z,100205.91
2019-03-03T11:43:07.210Z,100215.59
2019-03-03T11:46:07.292Z,100208.55
2019-03-03T11:48:45.085Z,100206.10
2019-03-03T11:51:32.988Z,100210.28
2019-03-03T11:54:10.196Z,100212.33
2019-03-03T11:56:46.336Z,100205.01
2019-03-03T11:59:32.526Z,100197.57
2019-03-03T12:02:21.047Z,100193.38
2019-03-03T12:05:02.320Z,100200.70
2019-03-03T12:07:59.438Z,100195.00
2019-03-03T12:10:53.766Z,100187.45
2019-03-03T12:13:53.837Z,100187.73
2019-03-03T12:16:51.679Z,100185.70
2019-03-03T12:19:38.597Z,100185.70
2019-03-03T12:22:15.035Z,100175.27
2019-03-03T12:24:57.647Z,100181.67
2019-03-03T12:27:48.458Z,100182.52
2019-03-03T12:30:50.575Z,100184.67
2019-03-03T12:33:47.386Z,100185.16
2019-03-03T12:36:22.365Z,100183.04
2019-03-03T12:38:56.565Z,100179.09
2019-03-03T12:41:42.962Z,100175.77
2019-03-03T12:44:29.133Z,100175.05
2019-03-03T12:47:08.105Z,100169.94
2019-03-03T12:49:43.643Z,100168.26
2019-03-03T12:52:23.141Z,100166.37
2019-03-03T12:55:10.992Z,100168.94
2019-03-03T12:57:59.075Z,100160.50
2019-03-03T13:00:50.394Z,100162.70
2019-03-03T13:03:50.339Z,100159.78
2019-03-03T13:06:41.468Z,100159.78
2019-03-03T13:09:35.248Z,100162.66
2019-03-03T13:12:11.434Z,100145.57
2019-03-03T13:14:57.926Z,100143.05
2019-03-03T13:17:48.425Z,100134.77
2019-03-03T13:20:24.517Z,100139.77
2019-03-03T13:23:15.567Z,100138.81
2019-03-03T13:26:18.277Z,100141.45
2019-03-03T13:29:11.259Z,100130.56
2019-03-03T13:31:50.189Z,100124.92
2019-03-03T13:34:39.679Z,100124.23
2019-03-03T13:37:33.917Z,100117.00
2019-03-03T13:40:20.274Z,100124.00
2019-03-03T13:42:56.630Z,100124.00
2019-03-03T13:45:28.212Z,100120.60
2019-03-03T13:47:57.454Z,100112.80
2019-03-03T13:50:26.327Z,100114.00
2019-03-03T13:52:55.303Z,100111.36
2019-03-03T13:55:24.276Z,100103.34
2019-03-03T13:57:54.076Z,100102.39
2019-03-03T14:00:23.389Z,100090.02
2019-03-03T14:02:52.500Z,100092.30
2019-03-03T14:05:23.067Z,100092.30
2019-03-03T14:07:52.501Z,100095.78
2019-03-03T14:10:21.301Z,100080.03
2019-03-03T14:12:50.465Z,100088.91
2019-03-03T14:15:19.761Z,100084.38
2019-03-03T14:17:49.122Z,100081.34
2019-03-03T14:20:19.966Z,100075.70
2019-03-03T14:22:49.178Z,100077.03
2019-03-03T14:25:18.358Z,100061.75
2019-03-03T14:27:47.341Z,100061.39
2019-03-03T14:30:19.363Z,100053.98
2019-03-03T14:32:48.451Z,100046.54
2019-03-03T14:35:17.320Z,100050.37
2019-03-03T14:37:46.482Z,100057.82
2019-03-03T14:40:16.717Z,100045.09
2019-03-03T14:42:45.781Z,100042.94
2019-03-03T14:45:16.356Z,100039.70
2019-03-03T14:47:45.699Z,100040.33
2019-03-03T14:50:15.838Z,100032.13
2019-03-03T14:52:45.249Z,100032.73
2019-03-03T14:55:15.642Z,100039.70
2019-03-03T14:57:44.864Z,100037.66
2019-03-03T15:00:21.104Z,100027.45
2019-03-03T15:02:50.196Z,100024.94
2019-03-03T15:05:19.116Z,100012.21
2019-03-03T15:07:48.195Z,100010.53
2019-03-03T15:10:17.248Z,100001.86
2019-03-03T15:12:46.812Z,100004.05
2019-03-03T15:15:16.591Z,100009.66
2019-03-03T15:17:45.561Z,100004.27
2019-03-03T15:20:15.330Z,99992.50
2019-03-03T15:22:44.372Z,100001.38
2019-03-03T15:25:14.204Z,99993.20
2019-03-03T15:27:43.421Z,99996.56
2019-03-03T15:30:14.871Z,99988.28
2019-03-03T15:32:43.886Z,99981.68
2019-03-03T15:35:12.113Z,99983.45
2019-03-03T15:37:41.158Z,99977.36
2019-03-03T15:40:11.125Z,99968.09
2019-03-03T15:42:40.372Z,99966.17
2019-03-03T15:45:11.542Z,99969.78
2019-03-03T15:47:40.847Z,99951.05
2019-03-03T15:50:10.529Z,99959.70
2019-03-03T15:52:39.950Z,99965.82
2019-03-03T15:55:10.473Z,99950.70
2019-03-03T15:57:39.783Z,99953.45
2019-03-03T16:00:12.753Z,99956.58
2019-03-03T16:02:41.856Z,99953.67
2019-03-03T16:05:10.960Z,99943.62
2019-03-03T16:07:40.170Z,99946.50
2019-03-03T16:10:10.346Z,99946.50
2019-03-03T16:12:39.238Z,99943.50
2019-03-03T16:15:10.169Z,99935.22
2019-03-03T16:17:39.305Z,99929.34
2019-03-03T16:20:09.861Z,99923.44
2019-03-03T16:22:39.092Z,99923.95
2019-03-03T16:25:08.985Z,99916.15
2019-03-03T16:27:38.006Z,99910.00
2019-03-03T16:30:09.698Z,99911.56
2019-03-03T16:32:38.577Z,99911.20
2019-03-03T16:35:07.922Z,99905.68
2019-03-03T16:37:37.082Z,99899.92
2019-03-03T16:40:07.416Z,99898.98
2019-03-03T16:42:36.559Z,99893.20
2019-03-03T16:45:05.876Z,99889.61
2019-03-03T16:47:34.845Z,99884.93
2019-03-03T16:50:04.626Z,99881.56
2019-03-03T16:52:33.515Z,99877.88
2019-03-03T16:55:03.008Z,99884.61
2019-03-03T16:57:31.852Z,99869.95
2019-03-03T17:00:00.711Z,99872.83
2019-03-03T17:02:29.669Z,99867.69
2019-03-03T17:04:58.524Z,99860.86
2019-03-03T17:07:27.585Z,99866.85
2019-03-03T17:09:56.921Z,99854.72
2019-03-03T17:12:26.102Z,99858.70
2019-03-03T17:14:55.950Z,99847.30
2019-03-03T17:17:24.902Z,99841.05
2019-03-03T17:19:54.150Z,99846.92
2019-03-03T17:22:23.042Z,99835.27
2019-03-03T17:24:52.016Z,99841.87
2019-03-03T17:27:21.385Z,99836.70
2019-03-03T17:29:50.182Z,99836.94
2019-03-03T17:32:19.038Z,99827.34
2019-03-03T17:34:47.892Z,99819.63
2019-03-03T17:37:16.992Z,99825.66
2019-03-03T17:39:47.347Z,99821.70
2019-03-03T17:42:17.261Z,99819.54
2019-03-03T17:44:46.357Z,99817.96
2019-03-03T17:47:15.479Z,99810.87
2019-03-03T17:49:46.569Z,99807.03
2019-03-03T17:52:15.181Z,99810.39
2019-03-03T17:54:44.129Z,99798.36
2019-03-03T17:57:13.391Z,99800.05
2019-03-03T17:59:42.477Z,99801.14
2019-03-03T18:02:12.146Z,99796.69
2019-03-03T18:04:41.274Z,99791.05
2019-03-03T18:07:10.354Z,99789.73
2019-03-03T18:09:39.287Z,99787.80
2019-03-03T18:12:08.338Z,99785.38
2019-03-03T18:14:37.221Z,99771.33
2019-03-03T18:17:06.244Z,99775.68
2019-03-03T18:19:35.175Z,99776.38
2019-03-03T18:22:04.355Z,99781.19
2019-03-03T18:24:33.479Z,99772.17
2019-03-03T18:27:05.528Z,99771.11
2019-03-03T18:29:38.025Z,99770.49
2019-03-03T18:32:10.866Z,99763.80
2019-03-03T18:34:39.804Z,99761.64
2019-03-03T18:37:09.782Z,99762.82
2019-03-03T18:39:39.262Z,99752.97
2019-03-03T18:42:09.581Z,99752.00
2019-03-03T18:44:38.735Z,99754.64
2019-03-03T18:47:18.942Z,99749.97
2019-03-03T18:49:48.348Z,99742.39
2019-03-03T18:52:21.851Z,99727.30
2019-03-03T18:55:11.846Z,99733.15
2019-03-03T18:57:41.989Z,99725.57
2019-03-03T19:00:22.677Z,99729.31
2019-03-03T19:02:59.281Z,99715.36
2019-03-03T19:05:28.552Z,99727.25
2019-03-03T19:08:07.536Z,99722.84
2019-03-03T19:10:37.766Z,99730.41
2019-03-03T19:13:07.100Z,99732.09
2019-03-03T19:16:46.378Z,99729.31
2019-03-03T19:19:20.547Z,99717.70
2019-03-03T19:21:50.793Z,99726.09
2019-03-03T19:24:41.385Z,99722.58
2019-03-03T19:27:10.580Z,99720.91
2019-03-03T19:29:40.004Z,99712.83
2019-03-03T19:32:09.070Z,99716.56
2019-03-03T19:39:05.025Z,99711.79
2019-03-03T19:41:34.177Z,99702.05
2019-03-03T19:44:04.601Z,99707.47
2019-03-03T19:46:37.315Z,99709.77
2019-03-03T19:49:11.846Z,99693.42
2019-03-03T19:51:42.019Z,99704.96
2019-03-03T19:54:14.460Z,99695.58
2019-03-03T19:56:43.500Z,99697.52
2019-03-03T19:59:15.797Z,99694.74
2019-03-03T20:01:45.290Z,99692.45
2019-03-03T20:04:14.802Z,99693.42
2019-03-03T20:07:38.649Z,99697.03
2019-03-03T20:10:20.677Z,99684.77
2019-03-03T20:12:50.078Z,99681.41
2019-03-03T20:15:20.199Z,99685.02
2019-03-03T20:18:07.377Z,99688.64
2019-03-03T20:20:36.482Z,99678.54
2019-03-03T20:23:06.152Z,99692.59
2019-03-03T20:25:35.437Z,99679.38
2019-03-03T20:28:06.196Z,99684.54
2019-03-03T20:30:37.254Z,99681.06
2019-03-03T20:33:06.348Z,99679.39
2019-03-03T20:35:35.928Z,99672.44
2019-03-03T20:38:05.112Z,99676.13
2019-03-03T20:40:34.657Z,99682.38
2019-03-03T20:43:03.635Z,99673.97
2019-03-03T20:45:33.275Z,99666.18
2019-03-03T20:48:02.582Z,99671.73
2019-03-03T20:50:31.504Z,99670.36
2019-03-03T20:53:01.050Z,99670.49
2019-03-03T20:55:30.237Z,99656.23
2019-03-03T20:57:59.307Z,99653.34
2019-03-03T21:00:31.114Z,99646.86
2019-03-03T21:03:00.073Z,99649.27
2019-03-03T21:05:29.481Z,99644.92
2019-03-03T21:07:58.611Z,99638.23
2019-03-03T21:10:27.717Z,99642.55
2019-03-03T21:12:57.771Z,99632.95
2019-03-03T21:15:27.263Z,99622.03
2019-03-03T21:17:56.558Z,99615.56
2019-03-03T21:20:25.782Z,99607.51
2019-03-03T21:22:55.165Z,99600.50
2019-03-03T21:25:27.747Z,99602.58
2019-03-03T21:27:57.272Z,99603.19
2019-03-03T21:30:26.565Z,99600.28
2019-03-03T21:32:56.596Z,99595.97
2019-03-03T21:35:28.139Z,99589.02
2019-03-03T21:37:59.008Z,99584.44
2019-03-03T21:40:28.498Z,99582.14
2019-03-03T21:42:57.566Z,99577.83
2019-03-03T21:45:27.313Z,99564.73
2019-03-03T21:47:56.642Z,99572.90
2019-03-03T21:50:25.884Z,99557.05
2019-03-03T21:52:55.161Z,99563.92
2019-03-03T21:55:25.319Z,99550.36
2019-03-03T21:57:54.924Z,99549.40
2019-03-03T22:00:27.184Z,99550.36
2019-03-03T22:02:56.960Z,99556.35
2019-03-03T22:05:26.088Z,99550.95
2019-03-03T22:07:55.561Z,99553.70
2019-03-03T22:10:32.125Z,99548.78
2019-03-03T22:13:06.712Z,99540.69
2019-03-03T22:15:36.205Z,99540.72
2019-03-03T22:18:05.732Z,99530.98
2019-03-03T22:20:35.071Z,99523.69
2019-03-03T22:23:04.737Z,99525.84
2019-03-03T22:25:35.494Z,99517.78
2019-03-03T22:28:05.421Z,99514.98
2019-03-03T22:30:35.865Z,99521.50
2019-03-03T22:33:04.839Z,99516.92
2019-03-03T22:35:34.018Z,99514.98
2019-03-03T22:38:04.072Z,99524.70
2019-03-03T22:40:33.164Z,99518.38
2019-03-03T22:43:02.384Z,99526.81
2019-03-03T22:45:31.614Z,99509.12
2019-03-03T22:48:00.705Z,99505.70
2019-03-03T22:50:29.907Z,99495.33
2019-03-03T22:52:59.344Z,99506.52
2019-03-03T22:55:29.965Z,99495.33
2019-03-03T22:57:59.601Z,99494.84
2019-03-03T23:00:49.244Z,99492.09
2019-03-03T23:03:22.177Z,99482.95
2019-03-03T23:06:36.158Z,99481.42
2019-03-03T23:10:04.048Z,99478.50
2019-03-03T23:12:59.897Z,99477.91
2019-03-03T23:15:55.937Z,99469.50
2019-03-03T23:18:56.604Z,99461.17
2019-03-03T23:22:14.679Z,99456.78
2019-03-03T23:27:52.264Z,99443.65
2019-03-03T23:30:26.787Z,99444.23
2019-03-03T23:32:59.140Z,99447.89
2019-03-03T23:35:30.074Z,99433.08
2019-03-03T23:38:09.716Z,99438.50
2019-03-03T23:40:45.829Z,99440.41
2019-03-03T23:43:15.362Z,99445.80
2019-03-03T23:45:44.623Z,99434.92
2019-03-03T23:48:14.457Z,99417.05
2019-03-03T23:50:43.793Z,99421.47
2019-03-03T23:53:13.060Z,99413.92
2019-03-03T23:55:42.453Z,99422.16
2019-03-03T23:58:11.565Z,99407.03
